Tropical Cyclones
[Index]
Main Index Home Page Stock Weather Photos Extreme Storms Discussion Storm News and Storm Chasing Reports Tropical Cyclones / Hurricanes / Typhoons Weather Data and Links Wild Fires / Bushfires Weather Observation Techniques Weather Picture Catalogue Tornado Pictures and Reports Stock Video Footage and DVDs for sale
Season 2014-2015 Tropical Cyclone FUNDI Track Map
Season 2014-2015 Summaries (Operational Data): [AU] [SIO] [SPAC] [SH]
<<- Previous TC | 2014-2015 Season | Next TC ->>

click for intensity scale information  Lat/long Grid: Show Hide

 Date Labels: Show Hide

Operational Tropical Cyclone Data : JTWC Advisories

Name: FUNDI
Number: 1511

04 Feb 2015 12:00 UTC to 11 Feb 2015 06:00 UTC

    date/time    lat    long     hPa   cat  kts
2015-02-04 12   20.3    37.7    1010         15          
2015-02-04 18   20.3    38.0    1010         15          
2015-02-05 00   19.6    38.0    1010         15          
2015-02-05 06   19.9    38.7    1007         20          
2015-02-05 12   20.2    39.4    1007         20          
2015-02-05 18   20.9    40.6    1002         20          
2015-02-06 00   21.3    41.1    1003         25          
2015-02-06 06   21.7    41.9    1000         30          
2015-02-06 12   22.0    42.4    1000         30          
2015-02-06 18   22.8    42.9     996    1    35          
2015-02-07 00   23.1    43.2     996    1    35          
2015-02-07 06   23.8    43.3     996    1    35          
2015-02-07 12   24.7    43.2     996    1    35          
2015-02-07 18   25.6    43.5     996    1    35          
2015-02-08 00   26.7    43.6     996    1    40          
2015-02-08 06   28.0    43.9     989    1    45          
2015-02-08 12   30.3    44.2     993    1    40          
2015-02-08 18   32.8    44.2     993    1    40          
2015-02-09 00   34.3    43.7    1000         30          
2015-02-09 06   35.3    43.1    1000         30          
2015-02-09 12   35.8    41.9    1004         25          
2015-02-09 18   36.4    41.4    1000         30          
2015-02-10 00   36.9    40.6    1000         30          
2015-02-10 06   36.9    40.4    1000         30          
2015-02-10 12   37.3    40.7    1000         30          
2015-02-10 18   38.4    41.7    1004         25          
2015-02-11 00   39.6    40.9                             
2015-02-11 06   40.7    39.7                             
Winds are 10-min average.

Tropical cyclone tracks developed by Michael Bath using operational warnings and advisories and Google Maps.


[Australian Severe Weather index] [Copyright Notice] [Email Contacts] [Search This Site] [Privacy Policy]
Document: tropical_cyclone_fundi.htm Updated: 2 May 2017